Time;durP1;ratioP1;P1;durP2;ratioP2;P2;SDS_P1;SDS_P2;PMS_P1;PMS_P2;Temp;Humidity;BMP_temperature;BMP_pressure;BME280_temperature;BME280_humidity;BME280_pressure;Samples;Min_cycle;Max_cycle;Signal;HPM_P1;HPM_P2
2023/12/23 00:01:55;;;;;;;;;;;5.30;99.90;;;;;;6246804;23;19919;-74
2023/12/23 00:04:21;;;;;;;;;;;5.30;99.90;;;;;;6246672;23;19966;-75
2023/12/23 00:06:48;;;;;;;;;;;5.30;99.90;;;;;;6246861;23;19924;-74
2023/12/23 00:09:16;;;;;;;;;;;5.30;99.90;;;;;;6247930;23;19923;-74
2023/12/23 00:11:42;;;;;;;;;;;5.30;99.90;;;;;;6246906;23;19920;-74
2023/12/23 00:14:10;;;;;;;;;;;5.30;99.90;;;;;;6246776;23;19927;-74
2023/12/23 00:16:37;;;;;;;;;;;5.30;99.90;;;;;;6246807;23;19924;-74
2023/12/23 00:19:04;;;;;;;;;;;5.30;99.90;;;;;;6246896;23;19927;-74
2023/12/23 00:21:30;;;;;;;;;;;5.30;99.90;;;;;;6246858;23;19920;-74
2023/12/23 00:23:57;;;;;;;;;;;5.30;99.90;;;;;;6246807;23;19926;-74
2023/12/23 00:26:23;;;;;;;;;;;5.30;99.90;;;;;;6246829;23;19927;-74
2023/12/23 00:28:50;;;;;;;;;;;5.30;99.90;;;;;;6247322;23;19920;-74
2023/12/23 00:31:18;;;;;;;;;;;5.30;99.90;;;;;;6246358;23;20343;-74
2023/12/23 00:33:47;;;;;;;;;;;5.30;99.90;;;;;;6246955;23;19945;-74
2023/12/23 00:36:14;;;;;;;;;;;5.30;99.90;;;;;;6246587;23;19966;-74
2023/12/23 00:38:40;;;;;;;;;;;5.30;99.90;;;;;;6247267;23;19949;-76
2023/12/23 00:41:07;;;;;;;;;;;5.30;99.90;;;;;;6247163;23;19924;-76
2023/12/23 00:43:33;;;;;;;;;;;5.30;99.90;;;;;;6247063;23;19927;-76
2023/12/23 00:46:00;;;;;;;;;;;5.30;99.90;;;;;;6246804;23;19923;-76
2023/12/23 00:48:28;;;;;;;;;;;5.30;99.90;;;;;;6246297;23;20258;-76
2023/12/23 00:50:54;;;;;;;;;;;5.30;99.90;;;;;;6246737;23;19920;-76
2023/12/23 00:53:25;;;;;;;;;;;5.30;99.90;;;;;;6246624;23;19920;-75
2023/12/23 00:55:52;;;;;;;;;;;5.30;99.90;;;;;;6246285;23;19919;-74
2023/12/23 00:58:18;;;;;;;;;;;5.30;99.90;;;;;;6246937;23;19920;-74
2023/12/23 01:00:45;;;;;;;;;;;5.30;99.90;;;;;;6246990;23;19923;-74
2023/12/23 01:03:11;;;;;;;;;;;5.30;99.90;;;;;;6246572;23;19919;-74
2023/12/23 01:05:39;;;;;;;;;;;5.30;99.90;;;;;;6246089;23;20269;-74
2023/12/23 01:08:06;;;;;;;;;;;5.30;99.90;;;;;;6246220;23;19920;-74
2023/12/23 01:10:33;;;;;;;;;;;5.30;99.90;;;;;;6246508;23;19926;-74
2023/12/23 01:12:59;;;;;;;;;;;5.30;99.90;;;;;;6246725;23;19927;-75
2023/12/23 01:15:26;;;;;;;;;;;5.30;99.90;;;;;;6248150;23;19927;-76
2023/12/23 01:17:52;;;;;;;;;;;5.30;99.90;;;;;;6248705;23;19919;-75
2023/12/23 01:20:19;;;;;;;;;;;5.30;99.90;;;;;;6248931;23;19942;-74
2023/12/23 01:22:47;;;;;;;;;;;5.30;99.90;;;;;;6249690;23;19927;-74
2023/12/23 01:25:13;;;;;;;;;;;5.30;99.90;;;;;;6249583;23;19990;-75
2023/12/23 01:27:40;;;;;;;;;;;5.20;99.90;;;;;;6249207;23;19920;-75
2023/12/23 01:30:07;;;;;;;;;;;5.20;99.90;;;;;;6248906;23;20376;-75
2023/12/23 01:32:33;;;;;;;;;;;5.20;99.90;;;;;;6249449;23;19919;-75
2023/12/23 01:35:00;;;;;;;;;;;5.20;99.90;;;;;;6248571;23;19923;-75
2023/12/23 01:37:26;;;;;;;;;;;5.20;99.90;;;;;;6248974;23;19919;-75
2023/12/23 01:39:54;;;;;;;;;;;5.20;99.90;;;;;;6249105;23;19920;-75
2023/12/23 01:42:21;;;;;;;;;;;5.20;99.90;;;;;;6248996;23;19927;-75
2023/12/23 01:44:47;;;;;;;;;;;5.20;99.90;;;;;;6248533;23;20290;-75
2023/12/23 01:47:14;;;;;;;;;;;5.20;99.90;;;;;;6248307;23;19919;-75
2023/12/23 01:49:42;;;;;;;;;;;5.20;99.90;;;;;;6248561;23;19930;-75
2023/12/23 01:52:09;;;;;;;;;;;5.20;99.90;;;;;;6248594;23;19919;-75
2023/12/23 01:54:35;;;;;;;;;;;5.30;99.90;;;;;;6248187;23;19927;-75
2023/12/23 01:57:03;;;;;;;;;;;5.20;99.90;;;;;;6248409;23;19920;-75
2023/12/23 01:59:30;;;;;;;;;;;5.30;99.90;;;;;;6248467;23;19919;-75
2023/12/23 02:01:57;;;;;;;;;;;5.30;99.90;;;;;;6248433;23;19927;-75
2023/12/23 02:04:23;;;;;;;;;;;5.20;99.90;;;;;;6248599;23;19942;-75
2023/12/23 02:06:50;;;;;;;;;;;5.30;99.90;;;;;;6248667;23;20335;-75
2023/12/23 02:09:16;;;;;;;;;;;5.20;99.90;;;;;;6248723;23;19926;-74
2023/12/23 02:11:47;;;;;;;;;;;5.20;99.90;;;;;;6247711;23;19924;-74
2023/12/23 02:14:19;;;;;;;;;;;5.20;99.90;;;;;;6247973;23;19919;-75
2023/12/23 02:16:46;;;;;;;;;;;5.20;99.90;;;;;;6248509;23;19919;-74
2023/12/23 02:19:13;;;;;;;;;;;5.20;99.90;;;;;;6247605;23;20355;-74
2023/12/23 02:21:41;;;;;;;;;;;5.20;99.90;;;;;;6248359;23;19920;-76
2023/12/23 02:24:07;;;;;;;;;;;5.20;99.90;;;;;;6248734;23;19920;-76
2023/12/23 02:26:36;;;;;;;;;;;5.20;99.90;;;;;;6247879;23;19926;-75
2023/12/23 02:29:03;;;;;;;;;;;5.20;99.90;;;;;;6247873;23;19927;-76
2023/12/23 02:31:30;;;;;;;;;;;5.20;99.90;;;;;;6247861;23;20269;-75
2023/12/23 02:33:59;;;;;;;;;;;5.20;99.90;;;;;;6247750;23;19919;-75
2023/12/23 02:36:24;;;;;;;;;;;5.20;99.90;;;;;;6247719;23;19941;-73
2023/12/23 02:38:52;;;;;;;;;;;5.20;99.90;;;;;;6247909;23;20299;-73
2023/12/23 02:41:19;;;;;;;;;;;5.10;99.90;;;;;;6248152;23;20327;-75
2023/12/23 02:43:45;;;;;;;;;;;5.20;99.90;;;;;;6248577;23;19919;-74
2023/12/23 02:46:12;;;;;;;;;;;5.10;99.90;;;;;;6248303;23;19943;-75
2023/12/23 02:48:39;;;;;;;;;;;5.10;99.90;;;;;;6247719;23;19927;-75
2023/12/23 02:51:05;;;;;;;;;;;5.10;99.90;;;;;;6247622;23;19919;-75
2023/12/23 02:53:32;;;;;;;;;;;5.10;99.90;;;;;;6247581;23;20002;-75
2023/12/23 02:56:00;;;;;;;;;;;5.10;99.90;;;;;;6247480;23;19926;-75
2023/12/23 02:58:26;;;;;;;;;;;5.10;99.90;;;;;;6247571;23;19920;-75
2023/12/23 03:00:53;;;;;;;;;;;5.00;99.90;;;;;;6247511;23;19919;-75
2023/12/23 03:03:19;;;;;;;;;;;5.10;99.90;;;;;;6247478;23;19927;-75
2023/12/23 03:05:46;;;;;;;;;;;5.10;99.90;;;;;;6247392;23;19943;-74
2023/12/23 03:08:12;;;;;;;;;;;5.10;99.90;;;;;;6247340;23;19987;-74
2023/12/23 03:10:39;;;;;;;;;;;5.20;99.90;;;;;;6247316;23;19920;-75
2023/12/23 03:13:07;;;;;;;;;;;5.00;99.90;;;;;;6247474;23;19920;-75
2023/12/23 03:15:33;;;;;;;;;;;5.00;99.90;;;;;;6247345;23;19926;-75
2023/12/23 03:18:00;;;;;;;;;;;5.00;99.90;;;;;;6247551;23;19926;-74
2023/12/23 03:20:27;;;;;;;;;;;5.00;99.90;;;;;;6247487;23;19919;-74
2023/12/23 03:22:53;;;;;;;;;;;5.00;99.90;;;;;;6247311;23;19927;-74
2023/12/23 03:25:20;;;;;;;;;;;5.00;99.90;;;;;;6247256;23;19920;-74
2023/12/23 03:27:46;;;;;;;;;;;4.90;99.90;;;;;;6247308;23;19919;-73
2023/12/23 03:30:15;;;;;;;;;;;5.00;99.90;;;;;;6247188;23;19942;-73
2023/12/23 03:32:41;;;;;;;;;;;5.00;99.90;;;;;;6247263;23;19930;-73
2023/12/23 03:35:09;;;;;;;;;;;5.00;99.90;;;;;;6246899;23;19924;-73
2023/12/23 03:37:35;;;;;;;;;;;5.00;99.90;;;;;;6246765;23;20260;-73
2023/12/23 03:40:02;;;;;;;;;;;5.00;99.90;;;;;;6247080;23;20267;-74
2023/12/23 03:42:29;;;;;;;;;;;5.00;99.90;;;;;;6246739;23;20266;-74
2023/12/23 03:44:56;;;;;;;;;;;5.00;99.90;;;;;;6246965;23;19920;-75
2023/12/23 03:47:23;;;;;;;;;;;5.00;99.90;;;;;;6247038;23;19928;-74
2023/12/23 03:49:50;;;;;;;;;;;5.00;99.90;;;;;;6247074;23;19920;-74
2023/12/23 03:52:16;;;;;;;;;;;5.00;99.90;;;;;;6247096;23;19923;-75
2023/12/23 03:54:43;;;;;;;;;;;5.00;99.90;;;;;;6246627;23;20393;-76
2023/12/23 03:57:10;;;;;;;;;;;5.00;99.90;;;;;;6246992;23;19923;-75
2023/12/23 03:59:36;;;;;;;;;;;5.00;99.90;;;;;;6247378;23;19919;-75
2023/12/23 04:02:03;;;;;;;;;;;5.00;99.90;;;;;;6247514;23;20335;-74
2023/12/23 04:04:31;;;;;;;;;;;5.10;99.90;;;;;;6246809;23;19923;-74
2023/12/23 04:06:57;;;;;;;;;;;5.10;99.90;;;;;;6246862;23;19966;-74
2023/12/23 04:09:24;;;;;;;;;;;5.00;99.90;;;;;;6248142;23;19920;-74
2023/12/23 04:11:50;;;;;;;;;;;5.10;99.90;;;;;;6248502;23;19927;-75
2023/12/23 04:14:17;;;;;;;;;;;5.10;99.90;;;;;;6247768;23;19919;-76
2023/12/23 04:16:43;;;;;;;;;;;5.10;99.90;;;;;;6247006;23;20255;-76
2023/12/23 04:19:10;;;;;;;;;;;5.10;99.90;;;;;;6247582;23;19924;-76
2023/12/23 04:21:38;;;;;;;;;;;5.10;99.90;;;;;;6247534;23;19920;-76
2023/12/23 04:24:04;;;;;;;;;;;5.10;99.90;;;;;;6247799;23;19919;-76
2023/12/23 04:26:31;;;;;;;;;;;5.10;99.90;;;;;;6246661;23;19927;-76
2023/12/23 04:28:58;;;;;;;;;;;5.10;99.90;;;;;;6247001;23;19919;-76
2023/12/23 04:31:25;;;;;;;;;;;5.10;99.90;;;;;;6246764;23;19927;-76
2023/12/23 04:33:52;;;;;;;;;;;5.10;99.90;;;;;;6246733;23;19919;-75
2023/12/23 04:36:18;;;;;;;;;;;5.10;99.90;;;;;;6246371;23;19942;-76
2023/12/23 04:38:46;;;;;;;;;;;5.10;99.90;;;;;;6246342;23;20339;-78
2023/12/23 04:41:13;;;;;;;;;;;5.10;99.90;;;;;;6247550;23;19923;-77
2023/12/23 04:43:39;;;;;;;;;;;5.10;99.90;;;;;;6247180;23;19975;-76
2023/12/23 04:46:06;;;;;;;;;;;5.10;99.90;;;;;;6246792;23;19920;-76
2023/12/23 04:48:33;;;;;;;;;;;5.10;99.90;;;;;;6246784;23;19930;-75
2023/12/23 04:51:00;;;;;;;;;;;5.00;99.90;;;;;;6248264;23;20382;-75
2023/12/23 04:53:27;;;;;;;;;;;5.00;99.90;;;;;;6249613;23;19920;-76
2023/12/23 04:55:55;;;;;;;;;;;5.00;99.90;;;;;;6249006;23;19923;-76
2023/12/23 04:58:21;;;;;;;;;;;5.10;99.90;;;;;;6249214;23;19920;-77
2023/12/23 05:00:48;;;;;;;;;;;5.00;99.90;;;;;;6249425;23;19926;-77
2023/12/23 05:03:14;;;;;;;;;;;5.00;99.90;;;;;;6249509;23;19920;-77
2023/12/23 05:05:42;;;;;;;;;;;5.00;99.90;;;;;;6249306;23;19919;-77
2023/12/23 05:08:08;;;;;;;;;;;5.00;99.90;;;;;;6249138;23;19995;-77
2023/12/23 05:10:35;;;;;;;;;;;5.00;99.90;;;;;;6248517;23;19923;-77
2023/12/23 05:13:03;;;;;;;;;;;5.00;99.90;;;;;;6248526;23;19943;-75
2023/12/23 05:15:29;;;;;;;;;;;5.00;99.90;;;;;;6248475;23;19920;-75
2023/12/23 05:17:56;;;;;;;;;;;5.00;99.90;;;;;;6248682;23;19919;-75
2023/12/23 05:20:23;;;;;;;;;;;5.00;99.90;;;;;;6248528;23;19920;-75
2023/12/23 05:22:49;;;;;;;;;;;5.00;99.90;;;;;;6248533;23;19923;-75
2023/12/23 05:25:16;;;;;;;;;;;4.90;99.90;;;;;;6248362;23;19924;-75
2023/12/23 05:27:42;;;;;;;;;;;4.90;99.90;;;;;;6248267;23;19919;-75
2023/12/23 05:30:12;;;;;;;;;;;4.90;99.90;;;;;;6248347;23;19920;-76
2023/12/23 05:32:38;;;;;;;;;;;5.00;99.90;;;;;;6248230;23;20351;-76
2023/12/23 05:35:05;;;;;;;;;;;4.90;99.90;;;;;;6248090;23;19924;-76
2023/12/23 05:37:33;;;;;;;;;;;4.90;99.90;;;;;;6248284;23;19919;-76
2023/12/23 05:40:00;;;;;;;;;;;4.90;99.90;;;;;;6248348;23;19919;-76
2023/12/23 05:42:26;;;;;;;;;;;4.90;99.90;;;;;;6248200;23;19927;-76
2023/12/23 05:44:53;;;;;;;;;;;4.90;99.90;;;;;;6248058;23;19919;-76
2023/12/23 05:47:21;;;;;;;;;;;4.80;99.90;;;;;;6248051;23;19930;-76
2023/12/23 05:49:47;;;;;;;;;;;4.90;99.90;;;;;;6248266;23;19965;-76
2023/12/23 05:52:14;;;;;;;;;;;4.90;99.90;;;;;;6248135;23;19930;-76
2023/12/23 05:54:40;;;;;;;;;;;4.90;99.90;;;;;;6247921;23;19924;-76
2023/12/23 05:57:07;;;;;;;;;;;4.90;99.90;;;;;;6247951;23;19942;-76
2023/12/23 05:59:33;;;;;;;;;;;4.90;99.90;;;;;;6248419;23;19919;-75
2023/12/23 06:02:00;;;;;;;;;;;4.90;99.90;;;;;;6247712;23;20266;-77
2023/12/23 06:04:28;;;;;;;;;;;4.90;99.90;;;;;;6247506;23;19920;-77
2023/12/23 06:06:54;;;;;;;;;;;4.90;99.90;;;;;;6247893;23;19924;-76
2023/12/23 06:09:21;;;;;;;;;;;4.90;99.90;;;;;;6248113;23;19919;-76
2023/12/23 06:11:47;;;;;;;;;;;4.90;99.90;;;;;;6248047;23;19920;-77
2023/12/23 06:14:14;;;;;;;;;;;5.00;99.90;;;;;;6248462;23;19946;-78
2023/12/23 06:16:41;;;;;;;;;;;5.00;99.90;;;;;;6247747;23;19920;-76
2023/12/23 06:19:08;;;;;;;;;;;5.00;99.90;;;;;;6247853;23;19919;-76
2023/12/23 06:21:36;;;;;;;;;;;5.00;99.90;;;;;;6248485;23;19924;-76
2023/12/23 06:24:02;;;;;;;;;;;5.00;99.90;;;;;;6247848;23;19920;-76
2023/12/23 06:26:29;;;;;;;;;;;5.00;99.90;;;;;;6247826;23;19926;-76
2023/12/23 06:28:55;;;;;;;;;;;5.00;99.90;;;;;;6247924;23;19919;-77
2023/12/23 06:31:22;;;;;;;;;;;4.90;99.90;;;;;;6248561;23;19919;-77
2023/12/23 06:33:48;;;;;;;;;;;4.90;99.90;;;;;;6247959;23;20014;-76
2023/12/23 06:36:15;;;;;;;;;;;4.90;99.90;;;;;;6247627;23;19920;-77
2023/12/23 06:38:43;;;;;;;;;;;4.90;99.90;;;;;;6247998;23;19920;-76
2023/12/23 06:41:11;;;;;;;;;;;4.90;99.90;;;;;;6248034;23;19927;-76
2023/12/23 06:43:38;;;;;;;;;;;4.90;99.90;;;;;;6247455;23;20294;-76
2023/12/23 06:46:04;;;;;;;;;;;4.90;99.90;;;;;;6247459;23;20306;-76
2023/12/23 06:48:31;;;;;;;;;;;4.90;99.90;;;;;;6247496;23;20339;-76
2023/12/23 06:50:57;;;;;;;;;;;4.80;99.90;;;;;;6247777;23;19999;-76
2023/12/23 06:53:24;;;;;;;;;;;4.90;99.90;;;;;;6247789;23;19923;-75
2023/12/23 06:55:52;;;;;;;;;;;4.80;99.90;;;;;;6247504;23;19926;-75
2023/12/23 06:58:18;;;;;;;;;;;4.80;99.90;;;;;;6247913;23;19919;-75
2023/12/23 07:00:45;;;;;;;;;;;4.80;99.90;;;;;;6247583;23;19931;-76
2023/12/23 07:03:11;;;;;;;;;;;4.80;99.90;;;;;;6247579;23;19919;-76
2023/12/23 07:05:38;;;;;;;;;;;4.80;99.90;;;;;;6247311;23;19931;-76
2023/12/23 07:08:05;;;;;;;;;;;4.80;99.90;;;;;;6247368;23;19923;-76
2023/12/23 07:10:32;;;;;;;;;;;4.90;99.90;;;;;;6247335;23;19944;-76
2023/12/23 07:13:00;;;;;;;;;;;4.90;99.90;;;;;;6247186;23;19942;-76
2023/12/23 07:15:26;;;;;;;;;;;4.90;99.90;;;;;;6247208;23;19920;-76
2023/12/23 07:17:53;;;;;;;;;;;4.90;99.90;;;;;;6247161;23;19927;-77
2023/12/23 07:20:20;;;;;;;;;;;4.90;99.90;;;;;;6246945;23;19927;-77
2023/12/23 07:22:47;;;;;;;;;;;5.00;99.90;;;;;;6247318;23;19926;-76
2023/12/23 07:25:14;;;;;;;;;;;5.00;99.90;;;;;;6247100;23;19923;-76
2023/12/23 07:27:40;;;;;;;;;;;5.00;99.90;;;;;;6247368;23;19920;-75
2023/12/23 07:30:09;;;;;;;;;;;5.00;99.90;;;;;;6247234;23;20290;-76
2023/12/23 07:32:36;;;;;;;;;;;5.10;99.90;;;;;;6248140;23;19926;-76
2023/12/23 07:35:02;;;;;;;;;;;5.10;99.90;;;;;;6246632;23;20308;-76
2023/12/23 07:37:29;;;;;;;;;;;5.10;99.90;;;;;;6248146;23;19919;-75
2023/12/23 07:39:56;;;;;;;;;;;5.10;99.90;;;;;;6249409;23;19924;-76
2023/12/23 07:42:23;;;;;;;;;;;5.10;99.90;;;;;;6249522;23;19927;-75
2023/12/23 07:44:49;;;;;;;;;;;5.20;99.90;;;;;;6251078;23;19926;-75
2023/12/23 07:47:17;;;;;;;;;;;5.20;99.90;;;;;;6249282;23;19920;-75
2023/12/23 07:49:44;;;;;;;;;;;5.20;99.90;;;;;;6249257;23;19923;-75
2023/12/23 07:52:10;;;;;;;;;;;5.20;99.90;;;;;;6249252;23;19964;-74
2023/12/23 07:54:37;;;;;;;;;;;5.20;99.90;;;;;;6249061;23;19964;-74
2023/12/23 07:57:04;;;;;;;;;;;5.30;99.90;;;;;;6249337;23;19920;-74
2023/12/23 07:59:30;;;;;;;;;;;5.30;99.90;;;;;;6249697;23;19920;-74
2023/12/23 08:01:57;;;;;;;;;;;5.30;99.90;;;;;;6248650;23;20291;-75
2023/12/23 08:04:25;;;;;;;;;;;5.30;99.90;;;;;;6248925;23;19986;-75
2023/12/23 08:06:52;;;;;;;;;;;5.30;99.90;;;;;;6248366;23;19920;-76
2023/12/23 08:09:19;;;;;;;;;;;5.40;99.90;;;;;;6246775;23;19986;-77
2023/12/23 08:11:45;;;;;;;;;;;5.40;99.90;;;;;;6246794;23;19947;-76
2023/12/23 08:14:12;;;;;;;;;;;5.40;99.90;;;;;;6246643;23;20372;-75
2023/12/23 08:16:38;;;;;;;;;;;5.40;99.90;;;;;;6246896;23;19930;-76
2023/12/23 08:19:05;;;;;;;;;;;5.40;99.90;;;;;;6246529;23;20375;-74
2023/12/23 08:21:33;;;;;;;;;;;5.50;99.90;;;;;;6246870;23;19919;-75
2023/12/23 08:24:03;;;;;;;;;;;5.40;99.90;;;;;;6246473;23;19919;-74
2023/12/23 08:26:30;;;;;;;;;;;5.50;99.90;;;;;;6246633;23;19920;-76
2023/12/23 08:28:56;;;;;;;;;;;5.50;99.90;;;;;;6246762;23;19919;-75
2023/12/23 08:31:23;;;;;;;;;;;5.50;99.90;;;;;;6246839;23;19920;-76
2023/12/23 08:33:49;;;;;;;;;;;5.50;99.90;;;;;;6246705;23;19943;-76
2023/12/23 08:36:16;;;;;;;;;;;5.50;99.90;;;;;;6246283;23;19931;-74
2023/12/23 08:38:44;;;;;;;;;;;5.50;99.90;;;;;;6246746;23;19919;-74
2023/12/23 08:41:10;;;;;;;;;;;5.50;99.90;;;;;;6247089;23;19927;-74
2023/12/23 08:43:37;;;;;;;;;;;5.50;99.90;;;;;;6246721;23;19924;-74
2023/12/23 08:46:03;;;;;;;;;;;5.50;99.90;;;;;;6246866;23;19919;-74
2023/12/23 08:48:30;;;;;;;;;;;5.60;99.90;;;;;;6246759;23;19919;-74
2023/12/23 08:50:57;;;;;;;;;;;5.60;99.90;;;;;;6246883;23;19920;-74
2023/12/23 08:53:23;;;;;;;;;;;5.60;99.90;;;;;;6246751;23;19926;-74
2023/12/23 08:55:51;;;;;;;;;;;5.60;99.90;;;;;;6246647;23;19926;-74
2023/12/23 08:58:18;;;;;;;;;;;5.60;99.90;;;;;;6246254;23;20369;-74
2023/12/23 09:00:44;;;;;;;;;;;5.60;99.90;;;;;;6246833;23;19965;-74
2023/12/23 09:03:11;;;;;;;;;;;5.60;99.90;;;;;;6246783;23;19919;-74
2023/12/23 09:05:37;;;;;;;;;;;5.60;99.90;;;;;;6246619;23;19920;-74
2023/12/23 09:08:04;;;;;;;;;;;5.60;99.90;;;;;;6246581;23;19920;-74
2023/12/23 09:10:31;;;;;;;;;;;5.60;99.90;;;;;;6246499;23;19942;-75
2023/12/23 09:12:59;;;;;;;;;;;5.70;99.90;;;;;;6246521;23;19920;-75
2023/12/23 09:15:25;;;;;;;;;;;5.70;99.90;;;;;;6246145;23;19923;-75
2023/12/23 09:17:52;;;;;;;;;;;5.70;99.90;;;;;;6246445;23;19920;-75
2023/12/23 09:20:18;;;;;;;;;;;5.70;99.90;;;;;;6246656;23;19920;-75
2023/12/23 09:22:45;;;;;;;;;;;5.70;99.90;;;;;;6246439;23;20422;-72
2023/12/23 09:25:12;;;;;;;;;;;5.70;99.90;;;;;;6246187;23;19919;-72
2023/12/23 09:27:38;;;;;;;;;;;5.80;99.90;;;;;;6246659;23;19931;-78
2023/12/23 09:30:07;;;;;;;;;;;5.80;99.90;;;;;;6247783;23;19920;-73
2023/12/23 09:32:33;;;;;;;;;;;5.80;99.90;;;;;;6246761;23;20343;-74
2023/12/23 09:35:00;;;;;;;;;;;5.80;99.90;;;;;;6247418;23;19920;-68
2023/12/23 09:37:26;;;;;;;;;;;5.90;99.90;;;;;;6248352;23;19930;-72
2023/12/23 09:39:53;;;;;;;;;;;5.90;99.90;;;;;;6248529;23;19920;-73
2023/12/23 09:42:22;;;;;;;;;;;5.90;99.90;;;;;;6248376;23;19920;-72
2023/12/23 09:44:48;;;;;;;;;;;5.90;99.90;;;;;;6248391;23;19924;-72
2023/12/23 09:47:16;;;;;;;;;;;5.90;99.90;;;;;;6248309;23;19920;-73
2023/12/23 09:49:43;;;;;;;;;;;5.90;99.90;;;;;;6248379;23;19919;-73
2023/12/23 09:52:11;;;;;;;;;;;5.90;99.90;;;;;;6248732;23;19927;-73
2023/12/23 09:54:40;;;;;;;;;;;5.90;99.90;;;;;;6249110;23;19923;-73
2023/12/23 09:57:07;;;;;;;;;;;5.90;99.90;;;;;;6248836;23;20084;-72
2023/12/23 09:59:34;;;;;;;;;;;5.90;99.90;;;;;;6248931;23;19919;-72
2023/12/23 10:02:01;;;;;;;;;;;5.90;99.90;;;;;;6254146;23;19919;-77
2023/12/23 10:04:30;;;;;;;;;;;5.90;99.90;;;;;;6267913;23;19956;-77
2023/12/23 10:06:56;;;;;;;;;;;5.90;99.90;;;;;;6268008;23;19919;-77
2023/12/23 10:09:23;;;;;;;;;;;6.00;99.90;;;;;;6267114;23;19926;-77
2023/12/23 10:11:50;;;;;;;;;;;5.80;99.90;;;;;;6257231;23;19970;-76
2023/12/23 10:14:18;;;;;;;;;;;5.90;99.90;;;;;;6251794;23;19954;-76
2023/12/23 10:16:45;;;;;;;;;;;5.40;99.90;;;;;;6252154;23;19994;-76
2023/12/23 10:19:12;;;;;;;;;;;6.00;99.90;;;;;;6248931;23;19967;-75
2023/12/23 10:21:41;;;;;;;;;;;5.90;99.90;;;;;;6250219;23;19924;-75
2023/12/23 10:24:08;;;;;;;;;;;6.00;99.90;;;;;;6248605;23;19919;-75
2023/12/23 10:26:34;;;;;;;;;;;6.00;99.90;;;;;;6248378;23;20389;-75
2023/12/23 10:29:04;;;;;;;;;;;5.90;99.90;;;;;;6250042;23;19920;-75
2023/12/23 10:31:31;;;;;;;;;;;5.90;99.90;;;;;;6250293;23;19926;-75
2023/12/23 10:34:00;;;;;;;;;;;6.00;99.90;;;;;;6250470;23;19924;-76
2023/12/23 10:36:27;;;;;;;;;;;6.00;99.90;;;;;;6248811;23;19923;-73
2023/12/23 10:38:58;;;;;;;;;;;6.10;99.90;;;;;;6252451;23;19920;-75
2023/12/23 10:41:29;;;;;;;;;;;6.10;99.90;;;;;;6249895;23;19920;-76
2023/12/23 10:43:56;;;;;;;;;;;6.00;99.90;;;;;;6249108;23;19920;-75
2023/12/23 10:46:24;;;;;;;;;;;6.10;99.90;;;;;;6249378;23;19919;-75
2023/12/23 10:48:51;;;;;;;;;;;6.10;99.90;;;;;;6247667;23;19920;-75
2023/12/23 10:51:19;;;;;;;;;;;6.00;99.90;;;;;;6247727;23;20339;-74
2023/12/23 10:53:46;;;;;;;;;;;6.00;99.90;;;;;;6248098;23;19920;-75
2023/12/23 10:56:16;;;;;;;;;;;6.10;99.90;;;;;;6247877;23;19947;-74
2023/12/23 10:58:43;;;;;;;;;;;6.10;99.90;;;;;;6248087;23;19920;-74
2023/12/23 11:01:12;;;;;;;;;;;6.10;99.90;;;;;;6247610;23;19919;-74
2023/12/23 11:03:38;;;;;;;;;;;6.10;99.90;;;;;;6248125;23;19923;-75
2023/12/23 11:06:07;;;;;;;;;;;6.00;99.90;;;;;;6249311;23;19923;-75
2023/12/23 11:08:34;;;;;;;;;;;6.10;99.90;;;;;;6249241;23;19927;-75
2023/12/23 11:11:01;;;;;;;;;;;6.10;99.90;;;;;;6248569;23;19923;-74
2023/12/23 11:13:29;;;;;;;;;;;6.10;99.90;;;;;;6247855;23;19926;-71
2023/12/23 11:15:56;;;;;;;;;;;6.10;99.90;;;;;;6247158;23;19927;-72
2023/12/23 11:18:23;;;;;;;;;;;6.10;99.90;;;;;;6247574;23;19920;-71
2023/12/23 11:20:50;;;;;;;;;;;6.10;99.90;;;;;;6247273;23;19920;-71
2023/12/23 11:23:32;;;;;;;;;;;6.10;99.90;;;;;;6247271;23;19920;-70
2023/12/23 11:25:59;;;;;;;;;;;6.10;99.90;;;;;;6247342;23;19927;-70
2023/12/23 11:28:26;;;;;;;;;;;6.10;99.90;;;;;;6248494;23;19920;-70
2023/12/23 11:30:55;;;;;;;;;;;6.10;99.90;;;;;;6250227;23;19942;-71
2023/12/23 11:33:21;;;;;;;;;;;6.10;99.90;;;;;;6253223;23;19920;-73
2023/12/23 11:35:48;;;;;;;;;;;6.10;99.90;;;;;;6250184;23;19930;-71
2023/12/23 11:38:15;;;;;;;;;;;6.10;99.90;;;;;;6247574;23;20362;-70
2023/12/23 11:40:42;;;;;;;;;;;6.10;99.90;;;;;;6247452;23;19986;-69
2023/12/23 11:43:09;;;;;;;;;;;6.10;99.90;;;;;;6247626;23;19993;-69
2023/12/23 11:45:37;;;;;;;;;;;6.10;99.90;;;;;;6248367;23;20243;-70
2023/12/23 11:48:07;;;;;;;;;;;6.10;99.90;;;;;;6248473;23;19920;-70
2023/12/23 11:50:34;;;;;;;;;;;6.10;99.90;;;;;;6248255;23;19927;-70
2023/12/23 11:53:00;;;;;;;;;;;6.10;99.90;;;;;;6249015;23;19920;-70
2023/12/23 11:55:27;;;;;;;;;;;6.20;99.90;;;;;;6248410;23;19943;-70
2023/12/23 11:57:54;;;;;;;;;;;6.20;99.90;;;;;;6247925;23;19942;-70
2023/12/23 12:00:21;;;;;;;;;;;6.20;99.90;;;;;;6248139;23;19965;-70
2023/12/23 12:02:48;;;;;;;;;;;6.20;99.90;;;;;;6248844;23;20306;-70
2023/12/23 12:05:16;;;;;;;;;;;6.10;99.90;;;;;;6247974;23;20359;-70
2023/12/23 12:07:42;;;;;;;;;;;6.10;99.90;;;;;;6248791;23;19990;-69
2023/12/23 12:10:09;;;;;;;;;;;6.20;99.90;;;;;;6247749;23;19923;-70
2023/12/23 12:12:36;;;;;;;;;;;6.10;99.90;;;;;;6248449;23;19920;-70
2023/12/23 12:15:03;;;;;;;;;;;6.10;99.90;;;;;;6248287;23;19970;-69
2023/12/23 12:17:29;;;;;;;;;;;6.20;99.90;;;;;;6247856;23;19924;-70
2023/12/23 12:19:56;;;;;;;;;;;6.30;99.90;;;;;;6248547;23;19974;-70
2023/12/23 12:22:24;;;;;;;;;;;6.10;99.90;;;;;;6248423;23;19948;-70
2023/12/23 12:24:51;;;;;;;;;;;6.10;99.90;;;;;;6248781;23;19951;-69
2023/12/23 12:27:17;;;;;;;;;;;6.10;99.90;;;;;;6248682;23;19919;-70
2023/12/23 12:29:44;;;;;;;;;;;6.10;99.90;;;;;;6247772;23;19927;-70
2023/12/23 12:32:11;;;;;;;;;;;6.00;99.90;;;;;;6247495;23;19919;-70
2023/12/23 12:34:38;;;;;;;;;;;6.00;99.90;;;;;;6246667;23;20340;-70
2023/12/23 12:37:05;;;;;;;;;;;6.00;99.90;;;;;;6247706;23;19920;-69
2023/12/23 12:39:32;;;;;;;;;;;5.90;99.90;;;;;;6247050;23;19920;-70
2023/12/23 12:41:59;;;;;;;;;;;5.90;99.90;;;;;;6247399;23;19920;-70
2023/12/23 12:44:26;;;;;;;;;;;6.00;99.90;;;;;;6247541;23;19920;-71
2023/12/23 12:46:54;;;;;;;;;;;5.80;99.90;;;;;;6247456;23;19927;-71
2023/12/23 12:49:22;;;;;;;;;;;5.80;99.90;;;;;;6247417;23;19970;-71
2023/12/23 12:51:49;;;;;;;;;;;5.80;99.90;;;;;;6247079;23;19958;-70
2023/12/23 12:54:16;;;;;;;;;;;5.80;99.90;;;;;;6246511;23;19919;-69
2023/12/23 12:56:44;;;;;;;;;;;5.80;99.90;;;;;;6246805;23;19947;-69
2023/12/23 12:59:10;;;;;;;;;;;5.80;99.90;;;;;;6246600;23;20335;-69
2023/12/23 13:01:37;;;;;;;;;;;5.70;99.90;;;;;;6247620;23;19920;-69
2023/12/23 13:04:03;;;;;;;;;;;5.70;99.90;;;;;;6246490;23;20361;-69
2023/12/23 13:06:30;;;;;;;;;;;5.80;99.90;;;;;;6246528;23;19974;-70
2023/12/23 13:08:57;;;;;;;;;;;5.70;99.90;;;;;;6246889;23;19924;-70
2023/12/23 13:11:23;;;;;;;;;;;5.70;99.90;;;;;;6248734;23;19924;-70
2023/12/23 13:13:51;;;;;;;;;;;5.70;99.90;;;;;;6248579;23;20357;-70
2023/12/23 13:16:18;;;;;;;;;;;5.70;99.90;;;;;;6249763;23;19927;-70
2023/12/23 13:18:44;;;;;;;;;;;5.70;99.90;;;;;;6248540;23;19954;-70
2023/12/23 13:21:11;;;;;;;;;;;5.70;99.90;;;;;;6248680;23;19923;-70
2023/12/23 13:23:37;;;;;;;;;;;5.80;99.90;;;;;;6248593;23;19923;-70
2023/12/23 13:26:04;;;;;;;;;;;5.80;99.90;;;;;;6248399;23;19927;-70
2023/12/23 13:28:31;;;;;;;;;;;5.70;99.90;;;;;;6248408;23;19926;-70
2023/12/23 13:30:59;;;;;;;;;;;5.70;99.90;;;;;;6248474;23;19920;-70
2023/12/23 13:33:26;;;;;;;;;;;5.70;99.90;;;;;;6248195;23;20233;-70
2023/12/23 13:35:52;;;;;;;;;;;5.70;99.90;;;;;;6248072;23;19927;-71
2023/12/23 13:38:19;;;;;;;;;;;5.70;99.90;;;;;;6248203;23;19926;-70
2023/12/23 13:40:45;;;;;;;;;;;5.70;99.90;;;;;;6248601;23;19927;-71
2023/12/23 13:43:12;;;;;;;;;;;5.70;99.90;;;;;;6248299;23;19927;-71
2023/12/23 13:45:38;;;;;;;;;;;5.70;99.90;;;;;;6248149;23;19924;-74
2023/12/23 13:48:07;;;;;;;;;;;5.80;99.90;;;;;;6248898;23;20267;-74
2023/12/23 13:50:33;;;;;;;;;;;5.70;99.90;;;;;;6248663;23;19920;-74
2023/12/23 13:53:00;;;;;;;;;;;5.70;99.90;;;;;;6248389;23;19923;-74
2023/12/23 13:55:26;;;;;;;;;;;5.70;99.90;;;;;;6248172;23;19920;-73
2023/12/23 13:57:54;;;;;;;;;;;5.80;99.90;;;;;;6248272;23;19927;-73
2023/12/23 14:00:21;;;;;;;;;;;5.80;99.90;;;;;;6247907;23;19919;-73
2023/12/23 14:02:48;;;;;;;;;;;5.80;99.90;;;;;;6248008;23;20263;-73
2023/12/23 14:05:18;;;;;;;;;;;5.80;99.90;;;;;;6248484;23;19920;-73
2023/12/23 14:07:45;;;;;;;;;;;5.90;99.90;;;;;;6248332;23;19975;-74
2023/12/23 14:10:12;;;;;;;;;;;5.90;99.90;;;;;;6248342;23;19919;-74
2023/12/23 14:12:38;;;;;;;;;;;5.90;99.90;;;;;;6248559;23;19931;-73
2023/12/23 14:15:05;;;;;;;;;;;5.90;99.90;;;;;;6249638;23;19926;-73
2023/12/23 14:17:33;;;;;;;;;;;5.90;99.90;;;;;;6249878;23;20347;-74
2023/12/23 14:19:59;;;;;;;;;;;5.90;99.90;;;;;;6250398;23;19920;-73
2023/12/23 14:22:27;;;;;;;;;;;6.00;99.90;;;;;;6250127;23;19920;-73
2023/12/23 14:24:55;;;;;;;;;;;6.00;99.90;;;;;;6250721;23;19927;-74
2023/12/23 14:27:22;;;;;;;;;;;6.00;99.90;;;;;;6250450;23;19947;-73
2023/12/23 14:29:50;;;;;;;;;;;6.00;99.90;;;;;;6250860;23;20339;-73